4°C Temp
0°C Dewpoint
% Humidity
Temperature
37 KM/H
23 MPH
20 KTS
280°
Due West

Wind Speed
Mostly Scattered
Clouds
Pressure 996.92 (hPa) - 29.44 (in)
Visibility 6.2 (mi) - 10.0 (km)

Current Conditions
EGOV
Location 9(mi)
Metar :EGOV 252250Z AUTO 28020KT 9999 SCT020/// 04/00 Q0997
Tue 25th February 23:50 pm

Airport
  Metar Aviation API Data Provided by https://www.checkwx.com/ PHP scripts by weather34.com ©2020